Latest Weather Observations for Kilmore Gap

IDV60801

Issued at 4:31 am EDT Sunday 1 February 2015 (issued every 30 minutes, with the page automatically refreshed every 10 minutes)

About weather observations | Map of weather stations | Latest weather observations for VIC | Other Formats
Station Details ID: 088162 Name: KILMORE GAP Lat: -37.38 Lon: 144.97 Height: 527.8 m
Data from the previous 72 hours. | See also: Recent months at Kilmore Gap
Date/Time
EDT
Temp
°C
App
Temp
°C
Dew
Point
Rel
Hum
%
Delta-T
°C
Wind Press
QNH
hPa
Press
MSL
hPa
Rain
since 9 am
mm
Dir
 
Spd
km/h
Gust
km/h
Spd
kts
Gust
kts
01/04:30am 10.1 5.6 10.1 100 0.0 SSW 24 35 13 19 1011.7 - 0.4
01/04:00am 10.3 5.5 10.3 100 0.0 S 26 39 14 21 1011.9 - 0.4
01/03:30am 10.4 6.4 10.4 100 0.0 SSW 22 39 12 21 1012.1 - 0.4
01/03:00am 10.4 5.6 10.4 100 0.0 SSW 26 39 14 21 1012.1 1010.3 0.4
01/02:30am 10.5 6.1 10.5 100 0.0 S 24 39 13 21 1012.3 - 0.2
01/02:00am 10.5 6.1 10.5 100 0.0 SSW 24 35 13 19 1012.4 - 0.2
01/01:30am 10.7 6.4 10.7 100 0.0 SSW 24 35 13 19 1012.6 - 0.2
01/01:00am 10.8 6.5 10.8 100 0.0 SSW 24 39 13 21 1012.8 - 0.0
01/12:30am 10.9 6.6 10.9 100 0.0 SSW 24 35 13 19 1013.0 - 0.0
01/12:00am 10.9 7.0 10.9 100 0.0 SSW 22 33 12 18 1013.1 1011.2 0.0
 
Date/Time
EDT
Temp
°C
App
Temp
°C
Dew
Point
Rel
Hum
%
Delta-T
°C
Wind Press
QNH
hPa
Press
MSL
hPa
Rain
since 9 am
mm
Dir
 
Spd
km/h
Gust
km/h
Spd
kts
Gust
kts
31/11:30pm 11.1 7.3 11.1 100 0.0 S 22 33 12 18 1013.1 - 0.0
31/11:19pm 11.1 6.9 11.1 100 0.0 S 24 37 13 20 1013.2 - 0.0
31/11:00pm 11.2 7.0 11.0 99 0.1 S 24 39 13 21 1013.4 - 0.0
31/10:30pm 11.5 6.9 11.0 97 0.3 S 26 37 14 20 1013.5 - 0.0
31/10:00pm 11.9 7.3 11.0 94 0.5 S 26 39 14 21 1013.5 - 0.0
31/09:30pm 11.9 7.2 10.8 93 0.6 S 26 37 14 20 1013.0 - 0.0
31/09:00pm 12.2 7.9 10.9 92 0.7 S 24 35 13 19 1013.1 1011.3 0.0
31/08:30pm 13.3 9.0 10.7 84 1.4 S 24 35 13 19 1013.1 - 0.0
31/08:09pm 13.7 8.9 10.3 80 1.8 S 26 37 14 20 1012.9 - 0.0
31/08:00pm 13.8 9.0 10.2 79 1.9 S 26 39 14 21 1012.8 - 0.0
31/07:30pm 14.3 10.1 9.9 75 2.3 S 22 32 12 17 1012.6 - 0.0
31/07:00pm 15.0 10.0 9.4 69 3.0 S 26 41 14 22 1012.2 - 0.0
31/06:30pm 16.0 10.5 9.0 63 3.7 S 28 41 15 22 1012.0 - 0.0
31/06:00pm 16.7 11.6 9.1 61 4.0 S 26 39 14 21 1012.0 1010.3 0.0
31/05:30pm 16.9 10.8 8.3 57 4.5 S 30 43 16 23 1011.9 - 0.0
31/05:00pm 17.4 12.1 8.5 56 4.7 S 26 39 14 21 1011.9 - 0.0
31/04:30pm 17.6 12.8 8.7 56 4.7 S 24 33 13 18 1012.0 - 0.0
31/04:00pm 18.1 12.8 8.4 53 5.1 S 26 37 14 20 1011.9 - 0.0
31/03:30pm 18.3 12.3 8.8 54 5.1 SSW 30 41 16 22 1012.0 - 0.0
31/03:00pm 17.5 13.1 8.9 57 4.6 S 22 37 12 20 1012.1 1010.4 0.0
31/02:30pm 18.8 13.6 9.0 53 5.3 S 26 41 14 22 1012.1 - 0.0
31/02:00pm 17.2 13.0 9.6 61 4.1 SSW 22 35 12 19 1012.1 - 0.0
31/01:30pm 16.8 12.1 9.2 61 4.0 S 24 37 13 20 1012.2 - 0.0
31/01:00pm 16.1 11.5 9.8 66 3.4 S 24 37 13 20 1012.3 - 0.0
31/12:30pm 16.1 11.6 10.0 67 3.3 S 24 37 13 20 1012.4 - 0.0
31/12:00pm 16.0 11.0 9.7 66 3.4 S 26 39 14 21 1012.4 1010.7 0.0
31/11:30am 15.8 11.3 9.9 68 3.2 SSW 24 35 13 19 1012.4 - 0.0
31/11:00am 15.0 10.5 10.2 73 2.6 S 24 35 13 19 1012.4 - 0.0
31/10:30am 15.2 10.7 10.0 71 2.8 S 24 39 13 21 1012.1 - 0.0
31/10:27am 15.6 11.4 9.9 69 3.1 S 22 35 12 19 1012.1 - 0.0
31/10:00am 15.4 11.1 10.8 74 2.5 S 24 33 13 18 1012.2 - 0.0
31/09:30am 13.7 8.9 10.3 80 1.8 S 26 35 14 19 1012.1 - 0.0
31/09:00am 12.0 7.3 10.7 92 0.7 SSW 26 39 14 21 1012.1 1010.4 0.0
31/08:30am 11.7 7.5 11.1 96 0.3 S 24 35 13 19 1012.1 - 0.0
31/08:00am 11.1 7.6 10.9 99 0.1 SSW 20 32 11 17 1012.1 - 0.0
31/07:30am 10.8 7.2 10.6 99 0.1 S 20 30 11 16 1012.0 - 0.0
31/07:00am 10.5 6.9 10.5 100 0.0 SSW 20 32 11 17 1011.8 - 0.0
31/06:30am 10.3 6.8 10.3 100 0.0 SSW 19 28 10 15 1011.5 - 0.0
31/06:00am 10.0 6.8 9.9 99 0.1 S 17 24 9 13 1011.2 1009.4 0.0
31/05:30am 10.1 6.5 9.9 99 0.1 S 19 28 10 15 1011.2 - 0.0
31/05:00am 10.1 6.3 9.8 98 0.2 S 20 28 11 15 1011.1 - 0.0
31/04:30am 10.3 6.7 10.0 98 0.2 S 19 26 10 14 1011.2 - 0.0
31/04:00am 10.3 6.7 9.7 96 0.3 S 19 26 10 14 1011.3 - 0.0
31/03:30am 10.3 7.0 9.5 95 0.4 S 17 24 9 13 1011.5 - 0.0
31/03:00am 10.3 6.6 9.4 94 0.5 S 19 26 10 14 1011.8 1010.0 0.0
31/02:30am 10.5 6.8 9.6 94 0.5 S 19 26 10 14 1011.8 - 0.0
31/02:00am 10.2 6.3 8.5 89 0.9 S 19 26 10 14 1012.1 - 0.0
31/01:44am 10.2 6.2 8.3 88 1.0 S 19 26 10 14 1012.3 - 0.0
31/01:30am 9.9 5.9 8.2 89 0.8 S 19 24 10 13 1012.6 - 0.0
31/01:00am 9.8 5.1 7.9 88 0.9 S 22 30 12 16 1012.6 - 0.0
31/12:30am 9.3 4.8 6.9 85 1.2 S 20 30 11 16 1012.6 - 0.0
31/12:00am 9.7 5.2 6.8 82 1.4 S 20 24 11 13 1012.7 1010.9 0.0
 
Date/Time
EDT
Temp
°C
App
Temp
°C
Dew
Point
Rel
Hum
%
Delta-T
°C
Wind Press
QNH
hPa
Press
MSL
hPa
Rain
since 9 am
mm
Dir
 
Spd
km/h
Gust
km/h
Spd
kts
Gust
kts
30/11:30pm 10.2 5.9 6.9 80 1.6 S 19 24 10 13 1013.1 - 0.0
30/11:00pm 10.6 6.2 6.7 77 1.9 S 19 24 10 13 1013.2 - 0.0
30/10:30pm 11.0 6.1 6.7 75 2.1 S 22 30 12 16 1013.4 - 0.0
30/10:00pm 11.2 6.6 6.3 72 2.4 S 20 24 11 13 1013.5 - 0.0
30/09:30pm 11.7 7.1 6.4 70 2.6 S 20 28 11 15 1013.4 - 0.0
30/09:00pm 12.4 8.0 6.7 68 2.8 S 19 24 10 13 1013.2 1011.4 0.0
30/08:30pm 12.9 8.6 7.1 68 2.9 SSE 19 30 10 16 1013.2 - 0.0
30/08:00pm 13.5 7.9 7.3 66 3.1 SSE 26 39 14 21 1013.0 - 0.0
30/07:30pm 14.5 9.3 7.1 61 3.7 SSE 24 39 13 21 1012.9 - 0.0
30/07:00pm 15.2 9.6 7.2 59 4.1 SSE 26 43 14 23 1013.0 - 0.0
30/06:30pm 14.9 8.4 6.5 57 4.2 S 30 43 16 23 1013.1 - 0.0
30/06:13pm 14.8 8.5 7.4 61 3.8 S 30 48 16 26 1013.1 - 0.0
30/06:00pm 15.1 8.8 7.4 60 3.9 S 30 41 16 22 1013.1 1011.3 0.0
30/05:36pm 16.6 10.7 7.3 54 4.8 S 28 46 15 25 1013.2 - 0.0
30/05:30pm 16.6 10.4 7.8 56 4.6 S 30 41 16 22 1013.2 - 0.0
30/05:00pm 16.3 10.2 6.7 53 4.9 S 28 43 15 23 1013.4 - 0.0
30/04:30pm 16.9 10.4 6.7 51 5.2 S 30 43 16 23 1013.7 - 0.0
30/04:00pm 17.2 11.0 6.1 48 5.6 S 28 39 15 21 1013.8 - 0.0
30/03:30pm 18.0 12.1 5.9 45 6.1 S 26 39 14 21 1014.1 - 0.0
30/03:14pm 17.7 11.1 5.9 46 5.9 S 30 50 16 27 1014.1 - 0.0
30/03:00pm 17.3 11.4 5.9 47 5.7 S 26 37 14 20 1014.3 1012.6 0.0
30/02:35pm 17.6 11.3 5.9 46 5.9 S 28 50 15 27 1014.4 - 0.0
30/02:30pm 17.2 10.5 5.5 46 5.8 S 30 43 16 23 1014.4 - 0.0
30/02:00pm 17.8 11.5 7.2 50 5.5 S 30 46 16 25 1014.8 - 0.0
30/01:45pm 17.5 11.5 7.0 50 5.4 S 28 46 15 25 1014.8 - 0.0
30/01:30pm 16.3 9.8 6.4 52 5.0 S 30 43 16 23 1014.9 - 0.0
30/01:00pm 16.0 9.0 6.2 52 4.9 S 32 50 17 27 1015.1 - 0.0
30/12:30pm 17.5 10.6 6.4 48 5.6 SSE 32 50 17 27 1015.2 - 0.0
30/12:27pm 17.1 10.0 5.4 46 5.8 S 32 50 17 27 1015.3 - 0.0
30/12:00pm 16.4 9.2 5.7 49 5.3 S 33 48 18 26 1015.4 1013.7 0.0
30/11:39am 17.4 10.9 6.6 49 5.5 SSE 30 48 16 26 1015.4 - 0.0
30/11:30am 15.9 9.0 6.3 53 4.8 S 32 48 17 26 1015.5 - 0.0
30/11:00am 16.0 8.3 5.3 49 5.2 SSE 35 57 19 31 1015.7 - 0.0
30/10:30am 16.1 9.4 8.3 60 4.1 SSE 33 52 18 28 1016.1 - 0.0
30/10:22am 15.2 9.2 7.0 58 4.1 SSE 28 46 15 25 1016.1 - 0.0
30/10:00am 14.1 8.7 8.1 67 3.1 SSE 26 37 14 20 1016.1 - 0.0
30/09:52am 13.7 7.5 7.9 68 3.0 SSE 30 43 16 23 1016.2 - 0.0
30/09:30am 13.0 8.0 8.1 72 2.5 SSE 24 37 13 20 1016.3 - 0.0
30/09:00am 12.1 6.1 8.8 80 1.7 SSE 30 43 16 23 1016.3 1014.6 0.0
30/08:40am 11.2 7.3 9.5 89 0.9 SSE 20 37 11 20 1016.2 - 0.0
30/08:30am 10.8 6.9 9.6 92 0.6 SSE 20 32 11 17 1016.2 - 0.0
30/08:00am 10.0 6.4 9.9 99 0.1 S 19 28 10 15 1015.8 - 0.0
30/07:30am 9.6 5.9 9.5 99 0.1 S 19 26 10 14 1015.6 - 0.0
30/07:00am 8.8 4.7 8.8 100 0.0 S 20 28 11 15 1015.4 - 0.0
30/06:39am 9.0 5.0 9.0 100 0.0 S 20 28 11 15 1015.2 - 0.0
30/06:30am 8.9 4.5 8.9 100 0.0 S 22 30 12 16 1015.2 - 0.0
30/06:00am 8.6 4.5 8.5 99 0.0 S 20 28 11 15 1015.2 1013.4 0.0
30/05:50am 8.5 4.0 8.4 99 0.0 S 22 30 12 16 1015.1 - 0.0
30/05:30am 8.2 4.2 8.1 99 0.0 S 19 26 10 14 1015.2 - 0.0
30/05:00am 8.1 4.0 8.0 99 0.0 S 19 24 10 13 1015.3 - 0.0
30/04:52am 8.2 4.2 8.1 99 0.0 S 19 24 10 13 1015.3 - 0.0
30/04:30am 8.2 4.5 8.1 99 0.0 S 17 20 9 11 1015.4 - 0.0
30/04:00am 8.3 5.4 8.2 99 0.0 S 13 17 7 9 1015.7 - 0.0
30/03:30am 8.2 4.9 7.9 98 0.1 S 15 20 8 11 1015.9 - 0.0
30/03:29am 8.2 4.9 7.9 98 0.1 S 15 20 8 11 1015.9 - 0.0
30/03:00am 8.6 4.9 8.0 96 0.3 S 17 22 9 12 1016.0 1014.3 0.0
30/02:30am 8.7 5.3 7.8 94 0.4 S 15 20 8 11 1016.2 - 0.0
30/02:00am 8.8 5.0 7.6 92 0.6 SSE 17 26 9 14 1016.6 - 0.0
30/01:30am 9.3 5.2 7.7 90 0.8 SSE 19 26 10 14 1016.7 - 0.0
30/01:00am 9.6 5.5 8.0 90 0.8 SSE 19 26 10 14 1016.9 - 0.0
30/12:30am 9.9 5.3 8.0 88 0.9 SSE 22 33 12 18 1017.3 - 0.0
30/12:00am 10.3 5.8 8.4 88 1.0 SSE 22 30 12 16 1017.4 1015.7 0.0
 
Date/Time
EDT
Temp
°C
App
Temp
°C
Dew
Point
Rel
Hum
%
Delta-T
°C
Wind Press
QNH
hPa
Press
MSL
hPa
Rain
since 9 am
mm
Dir
 
Spd
km/h
Gust
km/h
Spd
kts
Gust
kts
29/11:30pm 10.6 6.5 8.7 88 1.0 SSE 20 30 11 16 1017.6 - 0.0
29/11:00pm 11.2 5.3 9.1 87 1.1 SSE 30 43 16 23 1017.7 - 0.0
29/10:30pm 11.3 6.5 9.0 86 1.2 SSE 24 37 13 20 1017.7 - 0.0
29/10:00pm 11.4 7.3 8.8 84 1.3 SSE 20 30 11 16 1017.7 - 0.0
29/09:30pm 12.1 6.8 8.6 79 1.8 SSE 26 41 14 22 1017.7 - 0.0
29/09:00pm 12.8 7.5 8.5 75 2.2 SSE 26 39 14 21 1017.5 1015.8 0.0
29/08:30pm 13.9 6.5 8.5 70 2.8 SSE 37 54 20 29 1017.4 - 0.0
29/08:23pm 14.5 8.8 8.5 67 3.1 SSE 28 48 15 26 1017.4 - 0.0
29/08:00pm 15.2 9.0 8.0 62 3.7 S 30 43 16 23 1017.2 - 0.0
29/07:30pm 16.0 9.3 8.2 60 4.1 S 33 46 18 25 1016.8 - 0.0
29/07:00pm 16.8 10.4 8.5 58 4.4 S 32 50 17 27 1016.8 - 0.0
29/06:30pm 16.6 10.0 7.8 56 4.6 S 32 50 17 27 1016.6 - 0.0
29/06:01pm 17.8 11.3 8.1 53 5.1 SSE 32 52 17 28 1016.4 - 0.0
29/06:00pm 18.1 12.0 8.1 52 5.3 SSE 30 46 16 25 1016.6 1014.8 0.0
29/05:30pm 18.5 12.4 8.2 51 5.4 S 30 48 16 26 1016.8 - 0.0
29/05:05pm 17.6 11.2 7.1 50 5.4 SSE 30 48 16 26 1016.8 - 0.0
29/05:00pm 18.2 12.0 7.9 51 5.4 SSE 30 44 16 24 1017.0 - 0.0
29/04:30pm 16.8 10.4 8.5 58 4.4 S 32 50 17 27 1017.4 - 0.0
29/04:03pm 18.5 12.0 6.4 45 6.2 SSE 30 48 16 26 1017.4 - 0.0
29/04:00pm 19.0 12.9 6.8 45 6.3 SSE 28 43 15 23 1017.5 - 0.0
29/03:48pm 18.4 11.2 5.9 44 6.3 S 33 52 18 28 1017.4 - 0.0
29/03:30pm 17.8 12.3 7.5 51 5.3 S 26 41 14 22 1017.7 - 0.0
29/03:05pm 18.4 11.7 3.8 38 7.1 SSE 28 52 15 28 1017.8 - 0.0
29/03:00pm 19.9 12.9 4.0 35 7.8 SSE 30 43 16 23 1017.9 1016.2 0.0
29/02:39pm 21.0 13.8 5.8 37 7.8 SSE 33 52 18 28 1018.0 - 0.0
29/02:30pm 19.0 12.1 4.4 38 7.2 S 30 44 16 24 1018.0 - 0.0
29/02:00pm 18.2 10.8 4.0 39 6.9 SSE 32 50 17 27 1018.3 - 0.0
29/01:30pm 19.6 12.0 4.1 36 7.6 SSE 33 54 18 29 1018.7 - 0.0
29/01:13pm 18.4 11.7 3.8 38 7.1 SSE 28 50 15 27 1018.9 - 0.0
29/01:00pm 18.3 11.8 4.8 41 6.7 SSE 28 44 15 24 1019.0 - 0.0
29/12:37pm 16.8 8.9 4.5 44 6.0 SSE 35 54 19 29 1019.3 - 0.0
29/12:30pm 17.8 8.8 4.7 42 6.4 SE 41 52 22 28 1019.4 - 0.0
29/12:00pm 16.9 10.2 5.5 47 5.6 SSE 30 48 16 26 1019.6 1017.9 0.0
29/11:38am 15.9 8.5 4.9 48 5.3 SSE 33 52 18 28 1019.7 - 0.0
29/11:30am 16.2 7.4 5.5 49 5.3 SSE 41 54 22 29 1019.7 - 0.0
29/11:20am 17.3 10.0 5.6 46 5.8 SSE 33 54 18 29 1019.7 - 0.0
29/11:00am 15.3 8.1 6.1 54 4.6 SSE 33 46 18 25 1019.8 - 0.0
29/10:30am 15.6 9.8 6.3 54 4.6 SSE 26 43 14 23 1019.9 - 0.0
29/10:00am 15.3 7.0 6.3 55 4.5 SE 39 54 21 29 1020.0 - 0.0
29/09:30am 14.1 6.4 6.9 62 3.6 SSE 37 48 20 26 1020.0 - 0.0
29/09:17am 13.8 7.3 6.7 62 3.5 SSE 30 48 16 26 1020.0 - 0.0
29/09:00am 13.5 8.4 7.7 68 2.9 SSE 24 39 13 21 1020.0 1018.3 0.0
29/08:30am 11.8 6.6 8.8 82 1.5 SSE 26 39 14 21 1019.7 - 0.0
29/08:00am 10.3 6.3 8.9 91 0.7 SSE 20 30 11 16 1019.3 - 0.0
29/07:30am 9.3 5.4 8.8 97 0.3 SSE 19 26 10 14 1019.3 - 0.0
29/07:00am 8.1 3.5 8.0 99 0.0 S 22 28 12 15 1018.9 - 0.0
29/06:30am 7.7 3.5 7.4 98 0.1 S 19 24 10 13 1018.8 - 0.0
29/06:00am 7.8 3.9 7.2 96 0.3 SSE 17 22 9 12 1018.6 1016.8 0.0
29/05:30am 8.4 4.0 7.6 95 0.4 SSE 20 32 11 17 1018.0 - 0.0
29/05:00am 8.5 3.7 7.4 93 0.5 SSE 22 32 12 17 1018.2 - 0.0

Other Formats:

Comma delimited format used in spreadsheet applications
http://www.bom.gov.au/fwo/IDV60801/IDV60801.94860.axf

JavaScript Object Notation format (JSON) in row-major order
http://www.bom.gov.au/fwo/IDV60801/IDV60801.94860.json